Terminal Aerodrome Forecast
Issued by NWS Sterling, VA

Current Version | Previous Version | Graphics & Text | Print | Product List | Glossary On
Versions: 1 2 3 4 5 6 7 8 9 10 11 12 13 14 15 16 17 18 19
482
FTUS41 KLWX 221458 AAB
TAFIAD
TAF AMD
KIAD 221458Z 2215/2318 36009KT 3SM -RA BKN015 OVC025
     FM221800 36008KT P6SM -RA BKN015 OVC025
     FM222100 36007KT 3SM -RA BR BKN008 OVC025
     FM230000 35005KT 3SM BR BKN010 OVC025
     FM230100 35005KT 3SM BR BKN008 OVC025
     FM230300 34004KT 3SM BR OVC025
     FM230600 36005KT P6SM SCT025 OVC070=

USA.gov is the U.S. government's official web portal to all federal, state and local government web resources and services.